war-forum.net alexa rank chart, war-forum.net alexa rank daily changes

war-forum.net alexa rank chart, war-forum.net alexa rank daily changes

war-forum.net
Actual rank:
145 009

RANK HISTORY

Date Rank Diff
2018/06/20 145 009 +79 415
2018/06/19 65 594 -48 256
2018/06/18 113 850 +25 025
2018/06/17 88 825 -97 680
2018/06/16 186 505 +24 136
2018/06/15 162 369 +24 898
2018/06/14 137 471 -66 073
2018/06/13 203 544 +119 348
2018/06/12 84 196 -30 040
2018/06/11 114 236 -11 458
2018/06/10 125 694 +44 669
2018/06/09 81 025 -80 513
2018/06/08 161 538 +48 180
2018/06/07 113 358 +43 806
2018/06/06 69 552 -27 561
2018/06/05 97 113 +21 072
2018/06/04 76 041 -42 730
2018/06/03 118 771 -67 026
2018/06/02 185 797 +27 154
2018/06/01 158 643 -40 781
2018/05/31 199 424 +94 989
2018/05/30 104 435 -54 416
2018/05/29 158 851 -60 173
2018/05/28 219 024 +139 097
2018/05/27 79 927 -70 560
2018/05/26 150 487 +15 129
2018/05/25 135 358 +60 699
2018/05/24 74 659 -48 587
2018/05/23 123 246 +24 651
2018/05/22 98 595 +41 336
2018/05/21 57 259 -64 511
2018/05/20 121 770 +41 595
2018/05/19 80 175 -11 829
2018/05/18 92 004 -6 293
2018/05/17 98 297 -180 166
2018/05/16 278 463 +104 398
2018/05/15 174 065 +67 426
2018/05/14 106 639 -57 987
2018/05/13 164 626 -23 710
2018/05/12 188 336 -39 197
2018/05/11 227 533 +108 253
2018/05/10 119 280 -47 313
2018/05/09 166 593 +65 656
2018/05/08 100 937 -58 032
2018/05/07 158 969 +29 537
2018/05/06 129 432 +19 346
2018/05/05 110 086 -8 565
2018/05/04 118 651 +21 075
2018/05/03 97 576 -95 413
2018/05/02 192 989 +45 110
2018/05/01 147 879 -55 564
2018/04/30 203 443 +83 947
2018/04/29 119 496 +17 533
2018/04/28 101 963 -68 843
2018/04/27 170 806 +78 731
2018/04/26 92 075 -30 778
2018/04/25 122 853 +12 276
2018/04/24 110 577 -60 229
2018/04/23 170 806 +27 277
2018/04/22 143 529 -164 826
2018/04/21 308 355

WIDGET FOR YOUR SITE

DOMAINS WITH THE NEAREST RANK

Domain Rank
alenkaplus.com.ua 145 004
accessatlanta.com 145 005
imenik.hr 145 006
lechaim.ru 145 007
bridgewinners.com 145 008
war-forum.net 145 009
jakartaglobe.id 145 010
gioitreviet.net 145 011
canvas.com 145 012
devilhdtube.com 145 013
paris-friendly.fr 145 014

DOMAINS WITH THE NEAREST RANK BY TLD .net

Domain Rank
phobs.net 144 899
medicalschoolhq.net 144 905
trentinosalute.net 144 912
filefacts.net 144 930
nuclear-power.net 144 963
war-forum.net 145 009
gioitreviet.net 145 011
phoenixjp.net 145 064
hatigarmscans.net 145 070
hashtag-iq.net 145 082
maspormenos.net 145 124